sensor_id;sensor_type;location;lat;lon;timestamp;temperature;humidity
18163;DHT22;9206;50.994;4.538;2022-09-04T06:57:27;27.00;99.90
18163;DHT22;9206;50.994;4.538;2022-09-04T07:00:07;27.30;99.90
18163;DHT22;9206;50.994;4.538;2022-09-04T07:02:59;27.50;99.90
18163;DHT22;9206;50.994;4.538;2022-09-04T07:05:34;27.90;99.90
18163;DHT22;9206;50.994;4.538;2022-09-04T07:08:16;28.10;99.90
18163;DHT22;9206;50.994;4.538;2022-09-04T07:11:02;28.50;99.90
18163;DHT22;9206;50.994;4.538;2022-09-04T07:14:02;29.00;99.90
18163;DHT22;9206;50.994;4.538;2022-09-04T07:16:44;29.10;99.90
18163;DHT22;9206;50.994;4.538;2022-09-04T07:19:41;29.10;99.90
18163;DHT22;9206;50.994;4.538;2022-09-04T07:22:34;29.20;99.90
18163;DHT22;9206;50.994;4.538;2022-09-04T07:25:21;29.50;99.90
18163;DHT22;9206;50.994;4.538;2022-09-04T07:28:10;29.90;99.90
18163;DHT22;9206;50.994;4.538;2022-09-04T07:30:49;30.30;99.90
18163;DHT22;9206;50.994;4.538;2022-09-04T07:33:30;30.00;99.90
18163;DHT22;9206;50.994;4.538;2022-09-04T07:36:07;30.40;99.90
18163;DHT22;9206;50.994;4.538;2022-09-04T07:38:41;30.60;99.90
18163;DHT22;9206;50.994;4.538;2022-09-04T07:41:21;30.90;99.90
18163;DHT22;9206;50.994;4.538;2022-09-04T07:43:56;31.40;99.90
18163;DHT22;9206;50.994;4.538;2022-09-04T07:46:40;31.80;99.90
18163;DHT22;9206;50.994;4.538;2022-09-04T07:49:21;31.80;99.90
18163;DHT22;9206;50.994;4.538;2022-09-04T07:51:57;31.70;99.90
18163;DHT22;9206;50.994;4.538;2022-09-04T07:57:46;31.30;99.90
18163;DHT22;9206;50.994;4.538;2022-09-04T08:00:20;31.30;99.90
18163;DHT22;9206;50.994;4.538;2022-09-04T08:03:13;31.80;99.90
18163;DHT22;9206;50.994;4.538;2022-09-04T08:05:50;32.20;99.90
18163;DHT22;9206;50.994;4.538;2022-09-04T08:08:42;32.10;99.90
18163;DHT22;9206;50.994;4.538;2022-09-04T08:11:33;32.30;99.90
18163;DHT22;9206;50.994;4.538;2022-09-04T08:14:25;31.80;99.90
18163;DHT22;9206;50.994;4.538;2022-09-04T08:20:13;31.90;99.90
18163;DHT22;9206;50.994;4.538;2022-09-04T08:22:54;32.30;99.90
18163;DHT22;9206;50.994;4.538;2022-09-04T08:25:28;32.30;99.90
18163;DHT22;9206;50.994;4.538;2022-09-04T08:28:18;32.10;99.90
18163;DHT22;9206;50.994;4.538;2022-09-04T08:31:20;32.20;99.90
18163;DHT22;9206;50.994;4.538;2022-09-04T08:37:32;33.00;99.90
18163;DHT22;9206;50.994;4.538;2022-09-04T08:46:59;33.60;99.90
18163;DHT22;9206;50.994;4.538;2022-09-04T08:50:00;33.80;99.90
18163;DHT22;9206;50.994;4.538;2022-09-04T08:53:15;34.00;99.90
18163;DHT22;9206;50.994;4.538;2022-09-04T08:55:57;33.70;99.90
18163;DHT22;9206;50.994;4.538;2022-09-04T09:02:00;33.20;99.90
18163;DHT22;9206;50.994;4.538;2022-09-04T09:05:16;33.50;99.90
18163;DHT22;9206;50.994;4.538;2022-09-04T09:08:21;34.20;99.90
18163;DHT22;9206;50.994;4.538;2022-09-04T09:11:32;34.90;99.90
18163;DHT22;9206;50.994;4.538;2022-09-04T09:14:42;35.20;99.90
18163;DHT22;9206;50.994;4.538;2022-09-04T09:17:15;35.00;99.90
18163;DHT22;9206;50.994;4.538;2022-09-04T09:20:43;35.80;99.90
18163;DHT22;9206;50.994;4.538;2022-09-04T09:27:08;35.60;99.90
18163;DHT22;9206;50.994;4.538;2022-09-04T09:30:07;36.40;99.90
18163;DHT22;9206;50.994;4.538;2022-09-04T09:37:24;36.20;99.10
18163;DHT22;9206;50.994;4.538;2022-09-04T09:43:24;35.30;99.20
18163;DHT22;9206;50.994;4.538;2022-09-04T09:49:40;35.80;99.30
18163;DHT22;9206;50.994;4.538;2022-09-04T09:52:36;35.30;98.80
18163;DHT22;9206;50.994;4.538;2022-09-04T09:55:51;35.50;97.60
18163;DHT22;9206;50.994;4.538;2022-09-04T10:02:11;34.70;95.70
18163;DHT22;9206;50.994;4.538;2022-09-04T10:05:25;34.80;95.70
18163;DHT22;9206;50.994;4.538;2022-09-04T10:11:48;35.30;95.00
18163;DHT22;9206;50.994;4.538;2022-09-04T10:14:49;34.90;94.50
18163;DHT22;9206;50.994;4.538;2022-09-04T10:17:51;34.40;94.80
18163;DHT22;9206;50.994;4.538;2022-09-04T19:16:07;21.40;99.90
18163;DHT22;9206;50.994;4.538;2022-09-04T19:18:59;21.30;99.90
18163;DHT22;9206;50.994;4.538;2022-09-04T19:21:45;21.20;99.90
18163;DHT22;9206;50.994;4.538;2022-09-04T19:24:32;21.00;99.90
18163;DHT22;9206;50.994;4.538;2022-09-04T19:27:15;20.90;99.90
18163;DHT22;9206;50.994;4.538;2022-09-04T19:29:53;20.80;99.90
18163;DHT22;9206;50.994;4.538;2022-09-04T19:32:31;20.70;99.90
18163;DHT22;9206;50.994;4.538;2022-09-04T19:35:07;20.60;99.90
18163;DHT22;9206;50.994;4.538;2022-09-04T19:37:41;20.60;99.90
18163;DHT22;9206;50.994;4.538;2022-09-04T19:40:19;20.50;99.90
18163;DHT22;9206;50.994;4.538;2022-09-04T19:42:50;20.50;99.90
18163;DHT22;9206;50.994;4.538;2022-09-04T19:45:29;20.40;99.90
18163;DHT22;9206;50.994;4.538;2022-09-04T19:48:14;20.30;99.90
18163;DHT22;9206;50.994;4.538;2022-09-04T19:50:47;20.30;99.90
18163;DHT22;9206;50.994;4.538;2022-09-04T19:53:30;20.20;99.90
18163;DHT22;9206;50.994;4.538;2022-09-04T19:56:05;20.10;99.90
18163;DHT22;9206;50.994;4.538;2022-09-04T19:58:38;20.00;99.90
18163;DHT22;9206;50.994;4.538;2022-09-04T20:01:20;19.90;99.90
18163;DHT22;9206;50.994;4.538;2022-09-04T20:03:56;19.90;99.90
18163;DHT22;9206;50.994;4.538;2022-09-04T20:06:33;19.90;99.90
18163;DHT22;9206;50.994;4.538;2022-09-04T20:09:13;19.80;99.90
18163;DHT22;9206;50.994;4.538;2022-09-04T20:11:45;19.70;99.90
18163;DHT22;9206;50.994;4.538;2022-09-04T20:14:22;19.60;99.90
18163;DHT22;9206;50.994;4.538;2022-09-04T20:17:06;19.50;99.90
18163;DHT22;9206;50.994;4.538;2022-09-04T20:19:55;19.40;99.90
18163;DHT22;9206;50.994;4.538;2022-09-04T20:22:54;19.40;99.90
18163;DHT22;9206;50.994;4.538;2022-09-04T20:25:37;19.40;99.90
18163;DHT22;9206;50.994;4.538;2022-09-04T20:28:16;19.30;99.90
18163;DHT22;9206;50.994;4.538;2022-09-04T20:31:02;19.10;99.90
18163;DHT22;9206;50.994;4.538;2022-09-04T20:33:39;19.10;99.90
18163;DHT22;9206;50.994;4.538;2022-09-04T20:36:09;19.00;99.90
18163;DHT22;9206;50.994;4.538;2022-09-04T20:38:51;18.90;99.90
18163;DHT22;9206;50.994;4.538;2022-09-04T20:41:45;18.90;99.90
18163;DHT22;9206;50.994;4.538;2022-09-04T20:49:23;18.80;99.90
18163;DHT22;9206;50.994;4.538;2022-09-04T20:52:40;18.70;99.90
18163;DHT22;9206;50.994;4.538;2022-09-04T20:59:19;18.70;99.90
18163;DHT22;9206;50.994;4.538;2022-09-04T21:02:28;18.60;99.90
18163;DHT22;9206;50.994;4.538;2022-09-04T21:09:11;18.50;99.90
18163;DHT22;9206;50.994;4.538;2022-09-04T21:12:22;18.40;99.90
18163;DHT22;9206;50.994;4.538;2022-09-04T21:15:11;18.30;99.90
18163;DHT22;9206;50.994;4.538;2022-09-04T21:18:31;18.30;99.90
18163;DHT22;9206;50.994;4.538;2022-09-04T21:53:49;17.60;99.90
18163;DHT22;9206;50.994;4.538;2022-09-04T22:00:23;17.50;99.90
18163;DHT22;9206;50.994;4.538;2022-09-04T22:03:39;17.40;99.90
18163;DHT22;9206;50.994;4.538;2022-09-04T22:06:48;17.30;99.90
18163;DHT22;9206;50.994;4.538;2022-09-04T22:10:21;17.20;99.90
18163;DHT22;9206;50.994;4.538;2022-09-04T22:13:33;17.20;99.90
18163;DHT22;9206;50.994;4.538;2022-09-04T22:21:01;17.10;99.90
18163;DHT22;9206;50.994;4.538;2022-09-04T22:24:21;17.00;99.90
18163;DHT22;9206;50.994;4.538;2022-09-04T22:44:14;16.60;99.90
18163;DHT22;9206;50.994;4.538;2022-09-04T22:47:09;16.50;99.90
18163;DHT22;9206;50.994;4.538;2022-09-04T22:50:13;16.50;99.90
18163;DHT22;9206;50.994;4.538;2022-09-04T22:55:57;16.40;99.90
18163;DHT22;9206;50.994;4.538;2022-09-04T22:58:51;16.40;99.90
18163;DHT22;9206;50.994;4.538;2022-09-04T23:01:59;16.30;99.90
18163;DHT22;9206;50.994;4.538;2022-09-04T23:04:51;16.30;99.90
18163;DHT22;9206;50.994;4.538;2022-09-04T23:07:46;16.20;99.90
18163;DHT22;9206;50.994;4.538;2022-09-04T23:10:42;16.20;99.90
18163;DHT22;9206;50.994;4.538;2022-09-04T23:14:03;16.20;99.90
18163;DHT22;9206;50.994;4.538;2022-09-04T23:17:08;16.10;99.90
18163;DHT22;9206;50.994;4.538;2022-09-04T23:20:23;16.00;99.90
18163;DHT22;9206;50.994;4.538;2022-09-04T23:23:26;16.00;99.90
18163;DHT22;9206;50.994;4.538;2022-09-04T23:26:37;16.00;99.90
18163;DHT22;9206;50.994;4.538;2022-09-04T23:32:36;15.90;99.90
18163;DHT22;9206;50.994;4.538;2022-09-04T23:35:29;15.90;99.90
18163;DHT22;9206;50.994;4.538;2022-09-04T23:38:29;15.90;99.90
18163;DHT22;9206;50.994;4.538;2022-09-04T23:41:34;15.90;99.90
18163;DHT22;9206;50.994;4.538;2022-09-04T23:44:44;15.90;99.90
18163;DHT22;9206;50.994;4.538;2022-09-04T23:47:59;15.90;99.90
18163;DHT22;9206;50.994;4.538;2022-09-04T23:50:51;15.80;99.90
18163;DHT22;9206;50.994;4.538;2022-09-04T23:53:48;15.70;99.90
18163;DHT22;9206;50.994;4.538;2022-09-04T23:56:34;15.70;99.90
18163;DHT22;9206;50.994;4.538;2022-09-04T23:59:20;15.60;99.90
